Time;durP1;ratioP1;P1;durP2;ratioP2;P2;SDS_P1;SDS_P2;PMS_P1;PMS_P2;Temp;Humidity;BMP_temperature;BMP_pressure;BME280_temperature;BME280_humidity;BME280_pressure;Samples;Min_cycle;Max_cycle;Signal;HPM_P1;HPM_P2
2023/08/29 00:00:02;;;;;;;10.05;5.15;;;14.70;99.90;;;;;;4859557;29;20198;-73
2023/08/29 00:02:42;;;;;;;7.63;5.43;;;14.80;99.90;;;;;;4862178;29;20682;-75
2023/08/29 00:05:09;;;;;;;9.50;5.13;;;14.70;99.90;;;;;;4859544;29;20206;-75
2023/08/29 00:07:36;;;;;;;6.70;4.85;;;14.70;99.90;;;;;;4862170;29;20230;-75
2023/08/29 00:10:03;;;;;;;9.00;5.32;;;14.70;99.90;;;;;;4858138;29;20221;-75
2023/08/29 00:12:29;;;;;;;8.70;4.95;;;14.70;99.90;;;;;;4860439;29;20229;-74
2023/08/29 00:14:56;;;;;;;9.93;5.32;;;14.60;99.90;;;;;;4870270;29;20206;-75
2023/08/29 00:17:22;;;;;;;10.38;5.63;;;14.60;99.90;;;;;;4858528;29;20194;-73
2023/08/29 00:19:49;;;;;;;10.02;5.60;;;14.60;99.90;;;;;;4859703;29;20201;-75
2023/08/29 00:22:14;;;;;;;9.20;5.28;;;14.50;99.90;;;;;;4860830;29;20197;-73
2023/08/29 00:24:44;;;;;;;9.07;5.10;;;14.50;99.90;;;;;;4855583;29;20220;-75
2023/08/29 00:27:10;;;;;;;7.70;5.80;;;14.50;99.90;;;;;;4862744;29;20229;-74
2023/08/29 00:29:36;;;;;;;8.18;5.22;;;14.50;99.90;;;;;;4855956;29;20277;-75
2023/08/29 00:32:02;;;;;;;7.43;5.18;;;14.40;99.90;;;;;;4837745;29;20261;-75
2023/08/29 00:34:28;;;;;;;7.35;5.53;;;14.40;99.90;;;;;;4838794;29;20199;-72
2023/08/29 00:36:54;;;;;;;10.43;5.63;;;14.40;99.90;;;;;;4839691;29;20246;-73
2023/08/29 00:39:20;;;;;;;12.32;5.47;;;14.30;99.90;;;;;;4838230;29;20263;-73
2023/08/29 00:41:49;;;;;;;9.00;5.43;;;14.30;99.90;;;;;;4841584;29;20205;-74
2023/08/29 00:44:17;;;;;;;10.05;5.57;;;14.30;99.90;;;;;;4840080;29;20337;-73
2023/08/29 00:46:45;;;;;;;6.68;4.80;;;14.30;99.90;;;;;;4853219;29;20199;-75
2023/08/29 00:49:15;;;;;;;11.60;5.32;;;14.20;99.90;;;;;;4833146;29;20323;-75
2023/08/29 00:51:41;;;;;;;9.45;5.13;;;14.20;99.90;;;;;;4855858;29;20195;-74
2023/08/29 00:54:09;;;;;;;7.80;5.45;;;14.20;99.90;;;;;;4838441;29;20208;-72
2023/08/29 00:56:35;;;;;;;8.48;5.85;;;14.20;99.90;;;;;;4834870;29;20190;-76
2023/08/29 00:59:05;;;;;;;7.00;5.90;;;14.20;99.90;;;;;;4841106;29;20648;-76
2023/08/29 01:01:32;;;;;;;12.43;5.65;;;14.20;99.90;;;;;;4840377;29;20195;-76
2023/08/29 01:03:59;;;;;;;14.52;6.10;;;14.20;99.90;;;;;;4840382;29;20620;-76
2023/08/29 01:06:25;;;;;;;9.07;6.25;;;14.10;99.90;;;;;;4840987;29;20214;-77
2023/08/29 01:08:52;;;;;;;8.77;5.28;;;14.10;99.90;;;;;;4840191;29;20227;-77
2023/08/29 01:11:20;;;;;;;7.35;5.05;;;14.10;99.90;;;;;;4840493;29;20201;-74
2023/08/29 01:13:54;;;;;;;6.72;4.40;;;14.10;99.90;;;;;;4841906;29;20241;-75
2023/08/29 01:16:26;;;;;;;8.07;4.95;;;14.10;99.90;;;;;;4848038;29;20187;-75
2023/08/29 01:18:53;;;;;;;9.98;5.10;;;14.10;99.90;;;;;;4837362;29;20191;-75
2023/08/29 01:21:24;;;;;;;6.20;4.90;;;14.10;99.90;;;;;;4852578;29;20205;-75
2023/08/29 01:24:05;;;;;;;11.43;5.05;;;14.10;99.90;;;;;;4839697;29;20250;-77
2023/08/29 01:26:32;;;;;;;7.32;5.10;;;14.10;99.90;;;;;;4837993;29;20727;-76
2023/08/29 01:29:01;;;;;;;10.55;5.20;;;14.10;99.90;;;;;;4839669;29;20223;-76
2023/08/29 01:31:29;;;;;;;6.72;5.60;;;14.10;99.90;;;;;;4840663;29;20238;-77
2023/08/29 01:33:59;;;;;;;8.95;6.22;;;14.00;99.90;;;;;;4845342;29;20261;-74
2023/08/29 01:36:37;;;;;;;9.30;6.32;;;14.00;99.90;;;;;;4838333;29;20201;-77
2023/08/29 01:39:03;;;;;;;8.90;5.82;;;14.00;99.90;;;;;;4840457;29;20191;-75
2023/08/29 01:41:29;;;;;;;10.43;5.90;;;13.90;99.90;;;;;;4841441;29;20566;-76
2023/08/29 01:43:55;;;;;;;7.60;5.57;;;13.90;99.90;;;;;;4841279;29;20222;-74
2023/08/29 01:46:21;;;;;;;6.82;4.53;;;13.90;99.90;;;;;;4849571;29;20557;-74
2023/08/29 01:48:47;;;;;;;8.40;5.30;;;13.90;99.90;;;;;;4840737;29;20738;-76
2023/08/29 01:51:13;;;;;;;9.68;5.93;;;13.90;99.90;;;;;;4836787;29;20190;-77
2023/08/29 01:53:40;;;;;;;7.72;5.50;;;13.90;99.90;;;;;;4840344;29;20201;-75
2023/08/29 01:56:08;;;;;;;8.43;5.15;;;13.90;99.90;;;;;;4830603;29;20304;-75
2023/08/29 01:58:35;;;;;;;6.75;5.32;;;13.90;99.90;;;;;;4856053;29;20198;-75
2023/08/29 02:01:02;;;;;;;9.90;5.50;;;13.90;99.90;;;;;;4850712;29;20199;-76
2023/08/29 02:03:28;;;;;;;10.73;5.90;;;13.90;99.90;;;;;;4843897;29;20190;-79
2023/08/29 02:05:54;;;;;;;11.68;5.65;;;13.90;99.90;;;;;;4839707;29;20190;-80
2023/08/29 02:08:20;;;;;;;8.90;5.43;;;13.80;99.90;;;;;;4857622;29;20290;-80
2023/08/29 02:10:46;;;;;;;9.13;6.15;;;13.80;99.90;;;;;;4839422;29;20210;-77
2023/08/29 02:13:12;;;;;;;11.48;6.25;;;13.80;99.90;;;;;;4844785;29;20274;-79
2023/08/29 02:15:38;;;;;;;8.50;6.07;;;13.80;99.90;;;;;;4837517;29;20191;-80
2023/08/29 02:18:04;;;;;;;10.20;6.28;;;13.70;99.90;;;;;;4846876;29;20186;-81
2023/08/29 02:20:30;;;;;;;14.23;7.43;;;13.70;99.90;;;;;;4838878;29;20190;-77
2023/08/29 02:22:56;;;;;;;12.52;6.78;;;13.70;99.90;;;;;;4843922;29;20575;-79
2023/08/29 02:25:22;;;;;;;10.30;6.60;;;13.70;99.90;;;;;;4835440;29;20413;-80
2023/08/29 02:27:48;;;;;;;7.40;6.10;;;13.70;99.90;;;;;;4841203;29;20309;-81
2023/08/29 02:30:14;;;;;;;12.65;6.53;;;13.70;99.90;;;;;;4833428;29;20198;-79
2023/08/29 02:32:40;;;;;;;10.40;7.60;;;13.60;99.90;;;;;;4842125;29;20771;-79
2023/08/29 02:35:07;;;;;;;9.15;6.68;;;13.60;99.90;;;;;;4835860;29;20209;-75
2023/08/29 02:37:34;;;;;;;13.23;7.07;;;13.60;99.90;;;;;;4842275;29;20666;-79
2023/08/29 02:40:01;;;;;;;11.85;7.15;;;13.60;99.90;;;;;;4835620;29;20198;-78
2023/08/29 02:42:27;;;;;;;9.25;6.63;;;13.50;99.90;;;;;;4839701;29;20198;-78
2023/08/29 02:44:53;;;;;;;11.38;6.78;;;13.60;99.90;;;;;;4835857;29;20206;-76
2023/08/29 02:47:20;;;;;;;9.82;6.60;;;13.50;99.90;;;;;;4838659;29;20203;-77
2023/08/29 02:49:46;;;;;;;12.48;6.93;;;13.50;99.90;;;;;;4836796;29;20578;-78
2023/08/29 02:52:12;;;;;;;10.23;6.35;;;13.50;99.90;;;;;;4840795;29;20220;-78
2023/08/29 02:54:37;;;;;;;9.93;7.20;;;13.50;99.90;;;;;;4821133;29;20303;-79
2023/08/29 02:57:04;;;;;;;10.52;7.43;;;13.50;99.90;;;;;;4839789;29;20195;-78
2023/08/29 02:59:30;;;;;;;12.20;6.85;;;13.50;99.90;;;;;;4837821;29;20323;-77
2023/08/29 03:01:56;;;;;;;12.55;7.57;;;13.50;99.90;;;;;;4842210;29;20281;-78
2023/08/29 03:04:22;;;;;;;13.13;7.25;;;13.50;99.90;;;;;;4854451;29;20205;-75
2023/08/29 03:06:47;;;;;;;11.90;7.22;;;13.50;99.90;;;;;;4848727;29;20183;-78
2023/08/29 03:09:13;;;;;;;12.85;6.80;;;13.50;99.90;;;;;;4831887;29;20840;-77
2023/08/29 03:11:39;;;;;;;8.60;6.65;;;13.50;99.90;;;;;;4853979;29;20567;-78
2023/08/29 03:14:05;;;;;;;10.80;7.20;;;13.50;99.90;;;;;;4844646;29;20191;-76
2023/08/29 03:16:31;;;;;;;11.85;7.20;;;13.50;99.90;;;;;;4858776;29;20231;-76
2023/08/29 03:18:57;;;;;;;8.95;7.40;;;13.50;99.90;;;;;;4848822;29;20192;-78
2023/08/29 03:21:23;;;;;;;12.02;7.68;;;13.40;99.90;;;;;;4862269;29;20202;-79
2023/08/29 03:23:49;;;;;;;14.13;7.88;;;13.40;99.90;;;;;;4867116;29;20190;-79
2023/08/29 03:26:16;;;;;;;13.95;7.72;;;13.40;99.90;;;;;;4871124;29;20209;-78
2023/08/29 03:28:43;;;;;;;16.60;8.45;;;13.40;99.90;;;;;;4869331;29;20223;-79
2023/08/29 03:31:11;;;;;;;14.88;8.35;;;13.40;99.90;;;;;;4853752;29;20678;-79
2023/08/29 03:33:39;;;;;;;14.20;8.57;;;13.40;99.90;;;;;;4845254;29;20198;-76
2023/08/29 03:36:06;;;;;;;13.02;7.97;;;13.40;99.90;;;;;;4838780;29;20216;-79
2023/08/29 03:38:35;;;;;;;11.88;8.05;;;13.40;99.90;;;;;;4845098;29;20186;-78
2023/08/29 03:41:03;;;;;;;12.95;8.45;;;13.40;99.90;;;;;;4840602;29;20206;-77
2023/08/29 03:43:32;;;;;;;13.15;8.60;;;13.40;99.90;;;;;;4828230;29;20202;-77
2023/08/29 03:46:03;;;;;;;12.18;8.48;;;13.40;99.90;;;;;;4843359;29;20179;-75
2023/08/29 03:48:31;;;;;;;14.13;9.10;;;13.30;99.90;;;;;;4857926;29;20297;-77
2023/08/29 03:51:05;;;;;;;14.63;8.48;;;13.30;99.90;;;;;;4837275;29;20187;-79
2023/08/29 03:53:33;;;;;;;16.02;8.23;;;13.30;99.90;;;;;;4842892;29;20727;-77
2023/08/29 03:56:02;;;;;;;12.85;8.55;;;13.30;99.90;;;;;;4836798;29;20655;-78
2023/08/29 03:58:32;;;;;;;14.20;8.85;;;13.30;99.90;;;;;;4854898;29;20195;-76
2023/08/29 04:00:58;;;;;;;13.00;8.73;;;13.30;99.90;;;;;;4851400;29;20299;-77
2023/08/29 04:03:25;;;;;;;11.73;9.10;;;13.30;99.90;;;;;;4845018;29;20699;-80
2023/08/29 04:05:51;;;;;;;12.68;8.88;;;13.30;99.90;;;;;;4839403;29;20562;-79
2023/08/29 04:08:17;;;;;;;15.73;9.27;;;13.20;99.90;;;;;;4844413;29;20703;-80
2023/08/29 04:10:43;;;;;;;13.13;8.68;;;13.20;99.90;;;;;;4838202;29;20201;-79
2023/08/29 04:13:10;;;;;;;15.02;8.98;;;13.20;99.90;;;;;;4859325;29;20194;-79
2023/08/29 04:15:36;;;;;;;11.63;8.50;;;13.20;99.90;;;;;;4841014;29;20195;-80
2023/08/29 04:18:03;;;;;;;11.93;8.63;;;13.20;99.90;;;;;;4845124;29;20195;-79
2023/08/29 04:20:30;;;;;;;13.85;9.13;;;13.20;99.90;;;;;;4839243;29;20191;-80
2023/08/29 04:22:58;;;;;;;10.27;8.55;;;13.20;99.90;;;;;;4846470;29;20206;-81
2023/08/29 04:25:27;;;;;;;11.45;8.10;;;13.20;99.90;;;;;;4833965;29;20702;-80
2023/08/29 04:27:53;;;;;;;11.57;7.60;;;13.10;99.90;;;;;;4843608;29;20222;-81
2023/08/29 04:30:20;;;;;;;11.30;7.38;;;13.10;99.90;;;;;;4838064;29;20191;-78
2023/08/29 04:32:50;;;;;;;11.93;7.82;;;13.10;99.90;;;;;;4844597;29;20711;-80
2023/08/29 04:35:16;;;;;;;13.15;7.50;;;13.10;99.90;;;;;;4837752;29;20186;-81
2023/08/29 04:37:46;;;;;;;8.65;7.03;;;13.10;99.90;;;;;;4845065;29;20198;-79
2023/08/29 04:40:13;;;;;;;9.30;7.43;;;13.10;99.90;;;;;;4844431;29;20218;-80
2023/08/29 04:42:40;;;;;;;11.32;7.22;;;13.10;99.90;;;;;;4851852;29;20234;-78
2023/08/29 04:45:07;;;;;;;11.55;8.15;;;13.10;99.90;;;;;;4850523;29;20575;-76
2023/08/29 04:47:34;;;;;;;13.85;7.95;;;13.10;99.90;;;;;;4850976;29;20198;-79
2023/08/29 04:50:01;;;;;;;9.88;8.15;;;13.10;99.90;;;;;;4852975;29;20203;-79
2023/08/29 04:52:30;;;;;;;17.67;8.50;;;13.10;99.90;;;;;;4858722;29;20202;-78
2023/08/29 04:54:56;;;;;;;11.10;8.32;;;13.10;99.90;;;;;;4856367;29;20274;-79
2023/08/29 04:57:22;;;;;;;16.25;8.55;;;13.10;99.90;;;;;;4854529;29;20700;-78
2023/08/29 04:59:49;;;;;;;14.50;8.57;;;13.10;99.90;;;;;;4843945;29;20248;-77
2023/08/29 05:02:16;;;;;;;12.68;7.90;;;13.10;99.90;;;;;;4855690;29;20243;-77
2023/08/29 05:04:47;;;;;;;15.05;8.70;;;13.10;99.90;;;;;;4850863;29;20198;-78
2023/08/29 05:07:14;;;;;;;13.98;8.40;;;13.10;99.90;;;;;;4836922;29;20198;-76
2023/08/29 05:09:40;;;;;;;15.68;8.13;;;13.10;99.90;;;;;;4830605;29;20222;-75
2023/08/29 05:12:10;;;;;;;11.30;8.55;;;13.10;99.90;;;;;;4839137;29;20199;-77
2023/08/29 05:14:38;;;;;;;15.20;7.45;;;13.10;99.90;;;;;;4847723;29;20269;-76
2023/08/29 05:17:05;;;;;;;13.52;8.52;;;13.10;99.90;;;;;;4841482;29;20723;-75
2023/08/29 05:19:31;;;;;;;10.70;7.82;;;13.10;99.90;;;;;;4839598;29;20281;-75
2023/08/29 05:21:57;;;;;;;14.05;9.38;;;13.20;99.90;;;;;;4845171;29;20683;-76
2023/08/29 05:24:23;;;;;;;11.77;8.52;;;13.20;99.90;;;;;;4851044;29;20194;-76
2023/08/29 05:26:49;;;;;;;11.18;8.27;;;13.20;99.90;;;;;;4834245;29;20207;-73
2023/08/29 05:29:15;;;;;;;12.43;8.15;;;13.20;99.90;;;;;;4840061;29;20230;-74
2023/08/29 05:31:40;;;;;;;9.77;7.82;;;13.20;99.90;;;;;;4839004;29;20283;-72
2023/08/29 05:34:07;;;;;;;12.45;8.60;;;13.30;99.90;;;;;;4827502;29;20198;-77
2023/08/29 05:36:34;;;;;;;11.07;8.43;;;13.30;99.90;;;;;;4840194;29;20210;-72
2023/08/29 05:39:00;;;;;;;13.85;9.15;;;13.30;99.90;;;;;;4838140;29;20258;-74
2023/08/29 05:41:28;;;;;;;13.82;8.63;;;13.30;99.90;;;;;;4835427;29;20207;-73
2023/08/29 05:43:54;;;;;;;10.55;7.03;;;13.40;99.90;;;;;;4839518;29;20195;-76
2023/08/29 05:46:20;;;;;;;12.98;9.13;;;13.40;99.90;;;;;;4840284;29;20199;-75
2023/08/29 05:48:46;;;;;;;11.80;8.30;;;13.50;99.90;;;;;;4840336;29;20227;-74
2023/08/29 05:51:12;;;;;;;11.43;7.70;;;13.50;99.90;;;;;;4840273;29;20695;-74
2023/08/29 05:53:38;;;;;;;11.75;7.40;;;13.60;99.90;;;;;;4832369;29;20278;-70
2023/08/29 05:56:04;;;;;;;14.23;7.93;;;13.60;99.90;;;;;;4836172;29;20194;-73
2023/08/29 05:58:30;;;;;;;11.98;7.82;;;13.70;99.90;;;;;;4841284;29;20616;-69
2023/08/29 06:00:56;;;;;;;11.05;7.22;;;13.70;99.90;;;;;;4837835;29;20273;-70
2023/08/29 06:03:22;;;;;;;11.02;7.32;;;13.80;99.90;;;;;;4841367;29;20740;-73
2023/08/29 06:05:49;;;;;;;13.05;7.82;;;13.80;99.90;;;;;;4830945;29;20188;-73
2023/08/29 06:08:15;;;;;;;9.48;7.20;;;13.90;99.90;;;;;;4837816;29;20230;-73
2023/08/29 06:10:40;;;;;;;10.50;7.53;;;13.90;99.90;;;;;;4837152;29;20285;-70
2023/08/29 06:13:06;;;;;;;11.20;6.47;;;14.00;99.90;;;;;;4841377;29;20679;-71
2023/08/29 06:15:32;;;;;;;9.48;6.15;;;14.10;99.90;;;;;;4839400;29;20258;-72
2023/08/29 06:17:58;;;;;;;8.38;5.15;;;14.20;99.90;;;;;;4841095;29;20270;-71
2023/08/29 06:20:24;;;;;;;6.60;5.05;;;14.30;99.90;;;;;;4839391;29;20190;-72
2023/08/29 06:22:50;;;;;;;6.57;4.85;;;14.40;99.90;;;;;;4841454;29;20289;-72
2023/08/29 06:25:16;;;;;;;6.97;5.68;;;14.50;99.90;;;;;;4834771;29;20720;-72
2023/08/29 06:27:42;;;;;;;6.45;4.88;;;14.50;99.90;;;;;;4838755;29;20651;-73
2023/08/29 06:30:12;;;;;;;5.25;4.55;;;14.60;99.90;;;;;;4851233;29;20214;-75
2023/08/29 06:32:39;;;;;;;8.25;4.88;;;14.70;99.90;;;;;;4839852;29;20241;-72
2023/08/29 06:35:07;;;;;;;5.93;4.25;;;14.70;99.90;;;;;;4834917;29;20191;-74
2023/08/29 06:37:33;;;;;;;11.23;4.50;;;14.80;99.90;;;;;;4837972;29;20761;-73
2023/08/29 06:39:59;;;;;;;6.15;4.20;;;14.90;99.90;;;;;;4849476;29;20198;-72
2023/08/29 06:42:26;;;;;;;6.55;4.05;;;15.00;99.90;;;;;;4839379;29;20246;-72
2023/08/29 06:44:57;;;;;;;4.28;3.38;;;15.00;99.90;;;;;;4849744;29;20193;-72
2023/08/29 06:47:23;;;;;;;6.45;3.45;;;15.10;99.90;;;;;;4839247;29;20866;-71
2023/08/29 06:49:49;;;;;;;5.82;3.55;;;15.20;99.90;;;;;;4852839;29;20225;-70
2023/08/29 06:52:14;;;;;;;5.00;3.10;;;15.30;99.90;;;;;;4839059;29;20218;-76
2023/08/29 06:54:40;;;;;;;5.03;2.85;;;15.50;99.90;;;;;;4851098;29;20944;-73
2023/08/29 06:57:06;;;;;;;3.75;2.88;;;15.60;99.90;;;;;;4836278;29;20198;-72
2023/08/29 06:59:32;;;;;;;5.45;3.10;;;15.70;99.90;;;;;;4839553;29;20209;-74
2023/08/29 07:01:58;;;;;;;5.63;3.50;;;15.80;99.90;;;;;;4842710;29;20261;-74
2023/08/29 07:04:24;;;;;;;3.83;2.80;;;15.90;99.90;;;;;;4842045;29;20198;-74
2023/08/29 07:06:50;;;;;;;5.10;2.83;;;16.00;99.90;;;;;;4844213;29;20195;-73
2023/08/29 07:09:16;;;;;;;5.57;2.70;;;16.10;99.90;;;;;;4842271;29;20230;-72
2023/08/29 07:11:42;;;;;;;4.18;2.50;;;16.30;99.90;;;;;;4837946;29;20505;-74
2023/08/29 07:14:08;;;;;;;4.53;2.30;;;16.40;99.90;;;;;;4842739;29;20682;-72
2023/08/29 07:16:34;;;;;;;4.55;2.78;;;16.50;99.90;;;;;;4840711;29;20198;-73
2023/08/29 07:19:00;;;;;;;3.40;2.00;;;16.60;99.90;;;;;;4841981;29;20266;-74
2023/08/29 07:21:27;;;;;;;3.75;2.05;;;16.70;99.90;;;;;;4840457;29;20209;-73
2023/08/29 07:23:54;;;;;;;6.72;2.10;;;16.70;99.90;;;;;;4840817;29;20477;-72
2023/08/29 07:26:20;;;;;;;2.85;2.13;;;16.90;99.90;;;;;;4842536;29;20195;-73
2023/08/29 07:28:46;;;;;;;3.83;2.05;;;17.00;99.90;;;;;;4841727;29;20763;-71
2023/08/29 07:31:12;;;;;;;9.18;3.10;;;17.10;99.90;;;;;;4843533;29;20191;-73
2023/08/29 07:33:38;;;;;;;6.75;2.25;;;17.10;99.90;;;;;;4842781;29;20335;-71
2023/08/29 07:36:04;;;;;;;4.55;2.22;;;17.20;99.90;;;;;;4838884;29;20273;-69
2023/08/29 07:38:31;;;;;;;2.85;2.25;;;17.30;99.90;;;;;;4841095;29;20234;-69
2023/08/29 07:40:57;;;;;;;4.00;2.13;;;17.40;99.90;;;;;;4838039;29;20315;-67
2023/08/29 07:43:23;;;;;;;5.70;2.00;;;17.40;99.90;;;;;;4842326;29;20206;-68
2023/08/29 07:45:52;;;;;;;4.07;2.53;;;17.50;99.90;;;;;;4855220;29;20202;-68
2023/08/29 07:48:20;;;;;;;3.40;2.25;;;17.50;99.90;;;;;;4840090;29;20226;-68
2023/08/29 07:50:46;;;;;;;3.05;1.90;;;17.60;99.90;;;;;;4825869;29;20202;-68
2023/08/29 07:53:15;;;;;;;4.43;1.90;;;17.60;99.90;;;;;;4843000;29;20350;-68
2023/08/29 07:55:45;;;;;;;4.60;2.30;;;17.70;99.90;;;;;;4826192;29;20694;-68
2023/08/29 07:58:11;;;;;;;5.28;2.47;;;17.80;99.90;;;;;;4849796;29;20187;-67
2023/08/29 08:00:37;;;;;;;5.65;2.30;;;17.90;99.90;;;;;;4837985;29;20187;-65
2023/08/29 08:03:03;;;;;;;2.75;1.90;;;17.90;99.90;;;;;;4842814;29;20198;-69
2023/08/29 08:05:30;;;;;;;5.05;1.95;;;18.00;99.90;;;;;;4837689;29;20218;-64
2023/08/29 08:07:56;;;;;;;6.43;2.10;;;18.00;99.90;;;;;;4804725;29;20324;-69
2023/08/29 08:10:23;;;;;;;4.72;2.10;;;18.00;99.90;;;;;;4837594;29;20564;-65
2023/08/29 08:12:49;;;;;;;5.32;1.80;;;18.10;99.90;;;;;;4846736;29;20249;-65
2023/08/29 08:15:20;;;;;;;5.78;1.70;;;18.10;99.90;;;;;;4857039;29;20190;-64
2023/08/29 08:17:46;;;;;;;6.20;2.40;;;18.10;99.90;;;;;;4823214;29;20236;-68
2023/08/29 08:20:12;;;;;;;4.72;2.20;;;18.20;99.90;;;;;;4841444;29;20199;-68
2023/08/29 08:22:39;;;;;;;5.80;2.30;;;18.30;99.90;;;;;;4858543;29;20207;-68
2023/08/29 08:25:07;;;;;;;2.40;1.60;;;18.30;99.90;;;;;;4838466;29;20199;-67
2023/08/29 08:27:34;;;;;;;3.33;1.80;;;18.40;99.90;;;;;;4844269;29;20190;-67
2023/08/29 08:30:00;;;;;;;4.15;2.22;;;18.50;99.90;;;;;;4837431;29;20210;-67
2023/08/29 08:32:27;;;;;;;3.95;2.10;;;18.50;99.90;;;;;;4842116;29;20237;-67
2023/08/29 08:34:56;;;;;;;3.63;2.22;;;18.60;99.90;;;;;;4837856;29;20202;-68
2023/08/29 08:37:22;;;;;;;3.67;2.30;;;18.60;99.90;;;;;;4831917;29;20199;-67
2023/08/29 08:39:48;;;;;;;2.78;2.17;;;18.70;99.90;;;;;;4832291;29;20195;-67
2023/08/29 08:42:15;;;;;;;4.35;2.00;;;18.70;99.90;;;;;;4843052;29;20199;-66
2023/08/29 08:44:42;;;;;;;3.92;2.20;;;18.80;99.90;;;;;;4836407;29;20191;-66
2023/08/29 08:47:09;;;;;;;4.47;1.70;;;19.00;99.90;;;;;;4837652;29;20706;-66
2023/08/29 08:49:36;;;;;;;5.82;2.10;;;19.10;99.90;;;;;;4838351;29;20382;-66
2023/08/29 08:52:03;;;;;;;5.28;2.00;;;19.30;99.90;;;;;;4840433;29;20190;-66
2023/08/29 08:54:29;;;;;;;2.13;1.40;;;19.30;99.90;;;;;;4840072;29;20187;-67
2023/08/29 08:56:57;;;;;;;1.45;1.00;;;19.40;99.90;;;;;;4837375;29;20206;-66
2023/08/29 08:59:26;;;;;;;2.35;0.93;;;19.50;99.90;;;;;;4852913;29;20336;-66
2023/08/29 09:01:56;;;;;;;2.83;1.17;;;19.50;99.90;;;;;;4842098;29;20191;-66
2023/08/29 09:04:25;;;;;;;1.45;1.02;;;19.50;99.90;;;;;;4838723;29;20575;-67
2023/08/29 09:06:51;;;;;;;5.85;1.67;;;19.50;99.90;;;;;;4841400;29;20206;-67
2023/08/29 09:09:24;;;;;;;1.75;1.23;;;19.50;99.90;;;;;;4840623;29;20227;-67
2023/08/29 09:11:52;;;;;;;1.05;0.90;;;19.50;99.90;;;;;;4834877;29;20269;-69
2023/08/29 09:14:18;;;;;;;2.47;1.38;;;19.60;99.90;;;;;;4840025;29;20190;-68
2023/08/29 09:16:45;;;;;;;2.22;1.35;;;19.60;99.90;;;;;;4841541;29;20316;-66
2023/08/29 09:19:11;;;;;;;3.20;1.38;;;19.70;99.90;;;;;;4839617;29;20274;-68
2023/08/29 09:21:42;;;;;;;3.65;1.58;;;19.70;99.90;;;;;;4836440;29;20197;-66
2023/08/29 09:24:14;;;;;;;1.95;1.50;;;19.80;99.90;;;;;;4839895;29;20195;-68
2023/08/29 09:26:41;;;;;;;2.38;1.70;;;19.80;99.90;;;;;;4837672;29;20191;-67
2023/08/29 09:29:20;;;;;;;3.55;1.42;;;19.90;99.90;;;;;;4837668;29;20684;-67
2023/08/29 09:31:47;;;;;;;3.50;1.67;;;20.00;99.90;;;;;;4838664;29;20320;-71
2023/08/29 09:34:30;;;;;;;2.33;1.52;;;20.00;99.90;;;;;;4830349;29;20203;-65
2023/08/29 09:36:57;;;;;;;4.63;1.80;;;20.10;99.90;;;;;;4853804;29;20565;-69
2023/08/29 09:39:23;;;;;;;2.95;1.70;;;20.30;99.90;;;;;;4837333;29;20206;-65
2023/08/29 09:42:04;;;;;;;4.57;2.08;;;20.40;99.90;;;;;;4840291;29;20199;-66
2023/08/29 09:44:38;;;;;;;3.25;2.00;;;20.50;99.90;;;;;;4837472;29;20528;-67
2023/08/29 09:47:05;;;;;;;5.65;2.65;;;20.60;99.90;;;;;;4831476;29;20198;-67
2023/08/29 09:49:42;;;;;;;7.07;2.55;;;20.60;99.90;;;;;;4837857;29;20262;-68
2023/08/29 09:52:10;;;;;;;4.00;2.38;;;20.70;99.90;;;;;;4834273;29;20210;-67
2023/08/29 09:54:41;;;;;;;3.97;2.35;;;20.70;99.90;;;;;;4837663;29;20560;-67
2023/08/29 09:57:08;;;;;;;3.47;2.25;;;20.80;99.90;;;;;;4847954;29;20182;-65
2023/08/29 09:59:38;;;;;;;4.35;2.35;;;20.90;99.90;;;;;;4837988;29;20205;-68
2023/08/29 10:02:06;;;;;;;6.32;2.70;;;21.00;99.90;;;;;;4840283;29;20238;-66
2023/08/29 10:04:36;;;;;;;9.27;2.60;;;21.10;99.90;;;;;;4839538;29;20229;-67
2023/08/29 10:07:05;;;;;;;6.53;2.40;;;21.10;99.90;;;;;;4835891;29;20205;-67
2023/08/29 10:09:31;;;;;;;8.30;3.10;;;21.10;99.90;;;;;;4836839;29;20282;-67
2023/08/29 10:11:58;;;;;;;5.43;2.60;;;21.20;99.90;;;;;;4836071;29;20202;-69
2023/08/29 10:14:26;;;;;;;4.35;2.40;;;21.30;99.90;;;;;;4839704;29;20194;-67
2023/08/29 10:16:54;;;;;;;3.72;1.98;;;21.30;99.90;;;;;;4840840;29;20198;-67
2023/08/29 10:19:20;;;;;;;2.78;1.83;;;21.30;99.90;;;;;;4839901;29;20195;-68
2023/08/29 10:21:49;;;;;;;3.83;1.77;;;21.30;99.90;;;;;;4838175;29;20271;-68
2023/08/29 10:24:16;;;;;;;3.05;1.92;;;21.40;99.90;;;;;;4841625;29;20190;-68
2023/08/29 10:26:46;;;;;;;3.10;2.15;;;21.50;99.90;;;;;;4839763;29;20195;-66
2023/08/29 10:29:17;;;;;;;2.80;2.17;;;21.50;99.90;;;;;;4833751;29;20215;-69
2023/08/29 10:31:44;;;;;;;4.60;2.35;;;21.50;99.90;;;;;;4837753;29;20238;-66
2023/08/29 10:34:11;;;;;;;5.68;2.22;;;21.60;99.90;;;;;;4838092;29;20220;-66
2023/08/29 10:36:39;;;;;;;4.32;2.10;;;21.60;99.90;;;;;;4838460;29;20232;-68
2023/08/29 10:39:09;;;;;;;3.65;2.20;;;21.70;99.90;;;;;;4841186;29;20224;-66
2023/08/29 10:41:46;;;;;;;4.30;2.22;;;21.70;99.90;;;;;;4839396;29;20277;-66
2023/08/29 10:44:40;;;;;;;2.80;2.10;;;21.60;99.90;;;;;;4851307;29;20293;-69
2023/08/29 10:47:31;;;;;;;4.40;2.20;;;21.60;99.90;;;;;;4838254;29;20291;-67
2023/08/29 10:50:05;;;;;;;4.45;2.35;;;21.70;99.90;;;;;;4836120;29;20229;-68
2023/08/29 10:52:42;;;;;;;3.03;2.08;;;21.70;99.90;;;;;;4841094;29;20273;-66
2023/08/29 10:55:27;;;;;;;6.40;2.03;;;21.70;99.90;;;;;;4822758;29;20411;-66
2023/08/29 10:57:58;;;;;;;2.97;2.40;;;21.70;99.90;;;;;;4839525;29;20278;-67
2023/08/29 11:00:40;;;;;;;3.10;2.42;;;21.70;99.90;;;;;;4844839;29;20210;-67
2023/08/29 11:03:06;;;;;;;4.57;2.40;;;21.70;99.90;;;;;;4839063;29;20230;-68
2023/08/29 11:05:33;;;;;;;2.70;2.22;;;21.70;99.90;;;;;;4832253;29;20199;-66
2023/08/29 11:08:19;;;;;;;4.07;2.35;;;21.80;99.90;;;;;;4840014;29;20182;-67
2023/08/29 11:11:08;;;;;;;5.32;2.50;;;21.90;99.90;;;;;;4844685;29;20198;-66
2023/08/29 11:13:33;;;;;;;3.47;2.35;;;22.00;99.90;;;;;;4832756;29;20724;-68
2023/08/29 11:15:59;;;;;;;4.13;2.40;;;22.10;99.90;;;;;;4849537;29;20199;-67
2023/08/29 11:18:32;;;;;;;4.50;2.58;;;22.10;99.90;;;;;;4840864;29;20198;-67
2023/08/29 11:21:07;;;;;;;5.72;2.55;;;22.20;99.90;;;;;;4819579;29;20191;-65
2023/08/29 11:23:36;;;;;;;6.53;2.67;;;22.30;99.90;;;;;;4838401;29;20266;-67
2023/08/29 11:26:03;;;;;;;3.25;2.63;;;22.40;99.90;;;;;;4833988;29;20186;-68
2023/08/29 11:28:37;;;;;;;4.68;2.63;;;22.60;99.90;;;;;;4839925;29;20218;-65
2023/08/29 11:31:05;;;;;;;6.72;2.70;;;22.70;99.90;;;;;;4834761;29;20280;-68
2023/08/29 11:33:33;;;;;;;6.43;2.95;;;22.70;99.90;;;;;;4830892;29;20771;-67
2023/08/29 11:36:01;;;;;;;5.28;2.95;;;22.80;99.90;;;;;;4834995;29;20220;-67
2023/08/29 11:38:29;;;;;;;4.35;3.70;;;22.90;99.90;;;;;;4839909;29;20656;-67
2023/08/29 11:40:59;;;;;;;5.68;3.08;;;23.00;99.90;;;;;;4833658;29;20251;-67
2023/08/29 11:43:25;;;;;;;5.45;3.20;;;23.10;99.00;;;;;;4840359;29;20274;-67
2023/08/29 11:45:53;;;;;;;8.40;2.60;;;23.20;98.50;;;;;;4837657;29;20715;-66
2023/08/29 11:48:26;;;;;;;5.32;2.13;;;23.20;97.40;;;;;;4829467;29;20222;-66
2023/08/29 11:50:54;;;;;;;4.50;2.17;;;23.30;97.20;;;;;;4837781;29;20285;-66
2023/08/29 11:53:31;;;;;;;3.22;2.10;;;23.40;96.50;;;;;;4837185;29;20203;-67
2023/08/29 11:55:58;;;;;;;4.70;2.38;;;23.40;95.90;;;;;;4839011;29;20262;-67
2023/08/29 11:58:26;;;;;;;3.05;2.50;;;23.50;95.70;;;;;;4843718;29;20233;-66
2023/08/29 12:00:53;;;;;;;3.08;2.22;;;23.50;95.10;;;;;;4840203;29;20578;-68
2023/08/29 12:03:20;;;;;;;3.15;2.05;;;23.50;94.40;;;;;;4826464;29;20205;-69
2023/08/29 12:05:47;;;;;;;5.28;2.47;;;23.40;93.80;;;;;;4840819;29;20224;-67
2023/08/29 12:08:13;;;;;;;3.90;2.40;;;23.30;93.60;;;;;;4842689;29;20222;-67
2023/08/29 12:10:55;;;;;;;2.60;2.40;;;23.30;94.00;;;;;;4835578;29;20608;-67
2023/08/29 12:13:21;;;;;;;5.07;2.65;;;23.20;94.50;;;;;;4839139;29;20218;-70
2023/08/29 12:15:48;;;;;;;5.85;2.80;;;23.20;94.60;;;;;;4837638;29;20281;-67
2023/08/29 12:18:25;;;;;;;5.90;2.53;;;23.20;94.50;;;;;;4843248;29;20247;-67
2023/08/29 12:20:51;;;;;;;9.77;2.33;;;23.20;94.40;;;;;;4849960;29;20548;-67
2023/08/29 12:23:27;;;;;;;4.22;3.15;;;23.30;94.40;;;;;;4856503;29;20640;-67
2023/08/29 12:25:55;;;;;;;3.78;2.25;;;23.30;94.80;;;;;;4837245;29;20399;-68
2023/08/29 12:28:23;;;;;;;3.67;2.50;;;23.40;94.80;;;;;;4838083;29;20210;-68
2023/08/29 12:30:50;;;;;;;3.38;2.10;;;23.40;94.60;;;;;;4838733;29;20191;-69
2023/08/29 12:33:15;;;;;;;5.78;2.67;;;23.40;94.40;;;;;;4840905;29;20718;-68
2023/08/29 12:35:41;;;;;;;3.70;2.30;;;23.50;94.60;;;;;;4838718;29;20195;-69
2023/08/29 12:38:07;;;;;;;5.82;2.50;;;23.50;95.00;;;;;;4849964;29;20191;-68
2023/08/29 12:40:36;;;;;;;4.18;2.50;;;23.40;95.00;;;;;;4839180;29;20594;-68
2023/08/29 12:43:03;;;;;;;3.65;2.72;;;23.30;95.20;;;;;;4841308;29;20526;-68
2023/08/29 12:45:29;;;;;;;3.65;2.60;;;23.20;94.70;;;;;;4835865;29;20289;-68